sensor_id;sensor_type;location;lat;lon;timestamp;pressure;altitude;pressure_sealevel;temperature;humidity
71057;BME280;58380;48.312;9.246;2023-02-14T07:25:58;95200.63;;;-4.41;100.00
71057;BME280;58380;48.312;9.246;2023-02-14T07:28:24;95216.19;;;-4.21;100.00
71057;BME280;58380;48.312;9.246;2023-02-14T07:30:49;95205.78;;;-4.10;100.00
71057;BME280;58380;48.312;9.246;2023-02-14T07:33:14;95170.97;;;-4.25;100.00
71057;BME280;58380;48.312;9.246;2023-02-14T07:35:40;95131.09;;;-4.52;100.00
71057;BME280;58380;48.312;9.246;2023-02-14T07:38:05;95205.00;;;-4.01;100.00
71057;BME280;58380;48.312;9.246;2023-02-14T07:40:31;95187.34;;;-4.05;100.00
71057;BME280;58380;48.312;9.246;2023-02-14T07:42:57;95194.72;;;-3.91;100.00
71057;BME280;58380;48.312;9.246;2023-02-14T07:45:23;95220.19;;;-3.67;100.00
71057;BME280;58380;48.312;9.246;2023-02-14T07:47:50;95155.06;;;-4.00;100.00
71057;BME280;58380;48.312;9.246;2023-02-14T07:50:18;95222.56;;;-3.54;100.00
71057;BME280;58380;48.312;9.246;2023-02-14T07:52:45;95199.06;;;-3.51;100.00
71057;BME280;58380;48.312;9.246;2023-02-14T07:55:11;95215.66;;;-3.44;100.00
71057;BME280;58380;48.312;9.246;2023-02-14T07:57:37;95200.25;;;-3.55;100.00
71057;BME280;58380;48.312;9.246;2023-02-14T08:00:06;95197.03;;;-3.48;100.00
71057;BME280;58380;48.312;9.246;2023-02-14T08:02:32;95200.19;;;-3.34;100.00
71057;BME280;58380;48.312;9.246;2023-02-14T08:04:58;95209.69;;;-3.25;100.00
71057;BME280;58380;48.312;9.246;2023-02-14T08:07:23;95197.47;;;-3.23;100.00
71057;BME280;58380;48.312;9.246;2023-02-14T08:09:48;95220.59;;;-3.12;100.00
71057;BME280;58380;48.312;9.246;2023-02-14T08:12:14;95172.47;;;-3.42;100.00
71057;BME280;58380;48.312;9.246;2023-02-14T08:14:58;95168.91;;;-3.41;100.00
71057;BME280;58380;48.312;9.246;2023-02-14T08:17:43;95210.94;;;-3.00;100.00
71057;BME280;58380;48.312;9.246;2023-02-14T08:20:09;95196.81;;;-3.06;100.00
71057;BME280;58380;48.312;9.246;2023-02-14T08:22:35;95192.44;;;-2.95;100.00
71057;BME280;58380;48.312;9.246;2023-02-14T08:25:00;95177.06;;;-2.87;100.00
71057;BME280;58380;48.312;9.246;2023-02-14T08:27:26;95193.25;;;-2.56;100.00
71057;BME280;58380;48.312;9.246;2023-02-14T08:29:51;95192.53;;;-2.39;100.00
71057;BME280;58380;48.312;9.246;2023-02-14T08:32:16;95195.50;;;-2.33;100.00
71057;BME280;58380;48.312;9.246;2023-02-14T08:34:45;95154.47;;;-2.56;100.00
71057;BME280;58380;48.312;9.246;2023-02-14T08:37:11;95176.19;;;-2.39;100.00
71057;BME280;58380;48.312;9.246;2023-02-14T08:39:37;95179.56;;;-2.29;100.00
71057;BME280;58380;48.312;9.246;2023-02-14T08:42:04;95179.81;;;-2.22;100.00
71057;BME280;58380;48.312;9.246;2023-02-14T08:44:30;95185.25;;;-2.15;100.00
71057;BME280;58380;48.312;9.246;2023-02-14T08:46:56;95148.56;;;-2.39;100.00
71057;BME280;58380;48.312;9.246;2023-02-14T08:49:21;95192.59;;;-2.11;100.00
71057;BME280;58380;48.312;9.246;2023-02-14T08:51:47;95165.38;;;-2.25;100.00
71057;BME280;58380;48.312;9.246;2023-02-14T08:54:12;95190.25;;;-2.04;100.00
71057;BME280;58380;48.312;9.246;2023-02-14T08:56:38;95176.34;;;-2.03;100.00
71057;BME280;58380;48.312;9.246;2023-02-14T08:59:04;95196.44;;;-1.87;100.00
71057;BME280;58380;48.312;9.246;2023-02-14T09:01:30;95191.03;;;-1.94;100.00
71057;BME280;58380;48.312;9.246;2023-02-14T09:03:55;95177.69;;;-1.89;100.00
71057;BME280;58380;48.312;9.246;2023-02-14T09:06:22;95183.63;;;-1.79;100.00
71057;BME280;58380;48.312;9.246;2023-02-14T09:08:47;95173.47;;;-1.73;100.00
71057;BME280;58380;48.312;9.246;2023-02-14T09:11:15;95156.75;;;-1.78;100.00
71057;BME280;58380;48.312;9.246;2023-02-14T09:13:44;95192.56;;;-1.46;100.00
71057;BME280;58380;48.312;9.246;2023-02-14T09:16:12;95192.50;;;-1.36;100.00
71057;BME280;58380;48.312;9.246;2023-02-14T09:18:40;95176.31;;;-1.38;100.00
71057;BME280;58380;48.312;9.246;2023-02-14T09:21:12;95190.47;;;-1.15;100.00
71057;BME280;58380;48.312;9.246;2023-02-14T09:23:39;95162.25;;;-1.18;100.00
71057;BME280;58380;48.312;9.246;2023-02-14T09:26:07;95187.59;;;-0.94;100.00
71057;BME280;58380;48.312;9.246;2023-02-14T09:28:34;95162.09;;;-0.98;100.00
71057;BME280;58380;48.312;9.246;2023-02-14T09:31:08;95172.63;;;-0.82;100.00
71057;BME280;58380;48.312;9.246;2023-02-14T09:33:36;95169.78;;;-0.71;100.00
71057;BME280;58380;48.312;9.246;2023-02-14T09:36:02;95167.25;;;-0.62;100.00
71057;BME280;58380;48.312;9.246;2023-02-14T09:38:43;95138.09;;;-0.64;100.00
71057;BME280;58380;48.312;9.246;2023-02-14T09:44:01;95153.66;;;-0.12;100.00
71057;BME280;58380;48.312;9.246;2023-02-14T09:46:52;95147.06;;;0.02;100.00
71057;BME280;58380;48.312;9.246;2023-02-14T09:49:30;95136.53;;;0.03;100.00
71057;BME280;58380;48.312;9.246;2023-02-14T09:52:02;95157.34;;;0.19;100.00
71057;BME280;58380;48.312;9.246;2023-02-14T09:54:32;95141.47;;;0.23;100.00
71057;BME280;58380;48.312;9.246;2023-02-14T10:02:50;95120.94;;;0.54;100.00
71057;BME280;58380;48.312;9.246;2023-02-14T10:05:29;95138.84;;;0.90;100.00
71057;BME280;58380;48.312;9.246;2023-02-14T10:08:43;95132.69;;;0.99;100.00
71057;BME280;58380;48.312;9.246;2023-02-14T10:11:21;95129.94;;;1.17;100.00
71057;BME280;58380;48.312;9.246;2023-02-14T10:13:57;95143.75;;;1.34;100.00
71057;BME280;58380;48.312;9.246;2023-02-14T10:16:36;95112.38;;;1.27;100.00
71057;BME280;58380;48.312;9.246;2023-02-14T10:19:23;95127.66;;;1.46;100.00
71057;BME280;58380;48.312;9.246;2023-02-14T10:21:57;95124.41;;;1.53;100.00
71057;BME280;58380;48.312;9.246;2023-02-14T10:24:38;95106.31;;;1.59;100.00
71057;BME280;58380;48.312;9.246;2023-02-14T10:29:56;95127.72;;;2.02;100.00
71057;BME280;58380;48.312;9.246;2023-02-14T10:32:39;95132.81;;;2.27;100.00
71057;BME280;58380;48.312;9.246;2023-02-14T10:38:03;95114.13;;;2.54;99.83
71057;BME280;58380;48.312;9.246;2023-02-14T10:40:44;95109.91;;;2.53;100.00
71057;BME280;58380;48.312;9.246;2023-02-14T10:43:34;95122.00;;;2.77;100.00
71057;BME280;58380;48.312;9.246;2023-02-14T10:46:21;95119.38;;;2.77;100.00
71057;BME280;58380;48.312;9.246;2023-02-14T10:52:31;95101.19;;;3.15;100.00
71057;BME280;58380;48.312;9.246;2023-02-14T10:58:16;95105.75;;;3.51;100.00
71057;BME280;58380;48.312;9.246;2023-02-14T11:00:52;95097.53;;;3.77;99.40
71057;BME280;58380;48.312;9.246;2023-02-14T11:03:22;95085.00;;;3.87;99.01
71057;BME280;58380;48.312;9.246;2023-02-14T11:05:48;95091.19;;;4.01;98.95
71057;BME280;58380;48.312;9.246;2023-02-14T11:08:21;95084.72;;;4.12;98.54
71057;BME280;58380;48.312;9.246;2023-02-14T11:11:23;95076.75;;;4.35;97.86
71057;BME280;58380;48.312;9.246;2023-02-14T11:13:54;95070.63;;;4.43;97.66
71057;BME280;58380;48.312;9.246;2023-02-14T11:16:35;95070.56;;;4.58;97.93
71057;BME280;58380;48.312;9.246;2023-02-14T11:21:41;95055.22;;;4.69;97.02
71057;BME280;58380;48.312;9.246;2023-02-14T11:24:26;95053.06;;;5.01;96.37
71057;BME280;58380;48.312;9.246;2023-02-14T11:26:59;95066.72;;;5.18;96.46
71057;BME280;58380;48.312;9.246;2023-02-14T11:29:30;95061.16;;;5.28;95.58
71057;BME280;58380;48.312;9.246;2023-02-14T11:32:13;95046.50;;;5.33;95.47
71057;BME280;58380;48.312;9.246;2023-02-14T11:34:46;95056.13;;;5.54;95.19
71057;BME280;58380;48.312;9.246;2023-02-14T11:39:51;95022.97;;;5.68;93.44
71057;BME280;58380;48.312;9.246;2023-02-14T11:42:56;95028.78;;;5.98;92.78
71057;BME280;58380;48.312;9.246;2023-02-14T11:45:45;95051.31;;;6.28;91.47
71057;BME280;58380;48.312;9.246;2023-02-14T11:50:57;95027.94;;;6.33;92.27
71057;BME280;58380;48.312;9.246;2023-02-14T11:53:30;95033.63;;;6.43;91.83
71057;BME280;58380;48.312;9.246;2023-02-14T11:56:21;95004.56;;;6.51;89.92
71057;BME280;58380;48.312;9.246;2023-02-14T11:58:55;95029.88;;;6.85;89.12
71057;BME280;58380;48.312;9.246;2023-02-14T12:01:34;95015.75;;;6.93;88.13
71057;BME280;58380;48.312;9.246;2023-02-14T12:04:26;95021.81;;;7.13;88.21
71057;BME280;58380;48.312;9.246;2023-02-14T12:12:56;94987.88;;;7.25;85.92
71057;BME280;58380;48.312;9.246;2023-02-14T12:27:18;94995.31;;;8.27;80.29
71057;BME280;58380;48.312;9.246;2023-02-14T12:29:55;94996.06;;;8.40;78.77
71057;BME280;58380;48.312;9.246;2023-02-14T12:32:29;94968.56;;;8.36;77.40
71057;BME280;58380;48.312;9.246;2023-02-14T12:35:05;94965.28;;;8.48;76.17
71057;BME280;58380;48.312;9.246;2023-02-14T12:37:51;94962.63;;;8.54;75.91
71057;BME280;58380;48.312;9.246;2023-02-14T12:41:01;94986.53;;;8.78;76.32
71057;BME280;58380;48.312;9.246;2023-02-14T12:43:55;94974.78;;;8.80;76.17
71057;BME280;58380;48.312;9.246;2023-02-14T12:50:02;94969.53;;;9.05;73.93
71057;BME280;58380;48.312;9.246;2023-02-14T12:55:57;94947.03;;;9.10;71.83
71057;BME280;58380;48.312;9.246;2023-02-14T13:01:25;94959.28;;;9.41;71.78
71057;BME280;58380;48.312;9.246;2023-02-14T13:06:52;94918.47;;;9.50;69.10
71057;BME280;58380;48.312;9.246;2023-02-14T13:09:35;94954.84;;;9.78;69.86
71057;BME280;58380;48.312;9.246;2023-02-14T13:12:30;94943.50;;;9.78;68.62
71057;BME280;58380;48.312;9.246;2023-02-14T13:15:10;94937.06;;;9.92;67.26
71057;BME280;58380;48.312;9.246;2023-02-14T13:18:15;94935.97;;;10.00;65.96
71057;BME280;58380;48.312;9.246;2023-02-14T13:20:53;94912.00;;;10.01;64.55
71057;BME280;58380;48.312;9.246;2023-02-14T13:23:26;94930.34;;;10.26;64.77
71057;BME280;58380;48.312;9.246;2023-02-14T13:26:18;94896.91;;;10.08;61.49
71057;BME280;58380;48.312;9.246;2023-02-14T13:28:54;94906.97;;;10.30;61.81
71057;BME280;58380;48.312;9.246;2023-02-14T13:31:24;94910.84;;;10.27;63.13
71057;BME280;58380;48.312;9.246;2023-02-14T13:34:19;94909.91;;;10.22;62.34
71057;BME280;58380;48.312;9.246;2023-02-14T13:36:44;94879.97;;;9.98;58.74
71057;BME280;58380;48.312;9.246;2023-02-14T13:39:31;94887.63;;;10.18;57.72
71057;BME280;58380;48.312;9.246;2023-02-14T13:42:03;94856.16;;;10.04;58.55
71057;BME280;58380;48.312;9.246;2023-02-14T13:44:47;94902.75;;;10.41;58.01
71057;BME280;58380;48.312;9.246;2023-02-14T13:47:19;94907.25;;;10.40;59.84
71057;BME280;58380;48.312;9.246;2023-02-14T13:50:16;94902.22;;;10.39;58.83
71057;BME280;58380;48.312;9.246;2023-02-14T13:52:46;94893.03;;;10.53;57.10
71057;BME280;58380;48.312;9.246;2023-02-14T13:55:22;94885.94;;;10.65;58.10
71057;BME280;58380;48.312;9.246;2023-02-14T13:58:01;94889.78;;;10.81;56.62
71057;BME280;58380;48.312;9.246;2023-02-14T14:00:41;94896.78;;;10.87;55.83
71057;BME280;58380;48.312;9.246;2023-02-14T14:10:58;94893.59;;;10.97;54.56
71057;BME280;58380;48.312;9.246;2023-02-14T14:18:51;94895.50;;;10.78;56.97
71057;BME280;58380;48.312;9.246;2023-02-14T14:24:29;94892.88;;;10.78;59.13
71057;BME280;58380;48.312;9.246;2023-02-14T14:29:34;94884.59;;;10.74;57.72
71057;BME280;58380;48.312;9.246;2023-02-14T14:32:11;94879.88;;;10.88;55.92
71057;BME280;58380;48.312;9.246;2023-02-14T14:34:54;94895.19;;;10.86;57.04
71057;BME280;58380;48.312;9.246;2023-02-14T14:37:31;94887.38;;;10.79;58.65
71057;BME280;58380;48.312;9.246;2023-02-14T14:40:00;94872.66;;;10.72;55.81
71057;BME280;58380;48.312;9.246;2023-02-14T14:42:38;94860.94;;;10.68;56.62
71057;BME280;58380;48.312;9.246;2023-02-14T14:45:08;94853.81;;;10.68;57.80
71057;BME280;58380;48.312;9.246;2023-02-14T14:47:46;94854.94;;;10.61;56.48
71057;BME280;58380;48.312;9.246;2023-02-14T14:50:25;94881.88;;;10.81;57.38
71057;BME280;58380;48.312;9.246;2023-02-14T14:52:55;94882.28;;;10.78;57.84
71057;BME280;58380;48.312;9.246;2023-02-14T14:55:28;94824.41;;;10.41;56.54
71057;BME280;58380;48.312;9.246;2023-02-14T14:57:59;94817.50;;;10.40;57.46
71057;BME280;58380;48.312;9.246;2023-02-14T15:00:34;94875.97;;;10.67;57.65
71057;BME280;58380;48.312;9.246;2023-02-14T15:05:41;94874.38;;;10.66;57.67
71057;BME280;58380;48.312;9.246;2023-02-14T15:13:34;94859.53;;;10.65;57.49
71057;BME280;58380;48.312;9.246;2023-02-14T15:16:34;94875.63;;;10.75;56.55
71057;BME280;58380;48.312;9.246;2023-02-14T15:19:07;94878.75;;;10.72;56.18
71057;BME280;58380;48.312;9.246;2023-02-14T15:21:44;94872.28;;;10.56;56.19
71057;BME280;58380;48.312;9.246;2023-02-14T15:24:13;94873.44;;;10.61;55.35
71057;BME280;58380;48.312;9.246;2023-02-14T15:26:43;94877.56;;;10.56;56.62
71057;BME280;58380;48.312;9.246;2023-02-14T15:31:49;94884.75;;;10.38;56.77
71057;BME280;58380;48.312;9.246;2023-02-14T15:34:19;94876.84;;;10.19;55.14
71057;BME280;58380;48.312;9.246;2023-02-14T15:36:49;94872.47;;;10.13;55.09
71057;BME280;58380;48.312;9.246;2023-02-14T15:39:19;94883.47;;;10.10;56.25
71057;BME280;58380;48.312;9.246;2023-02-14T15:41:53;94896.47;;;9.93;56.62
71057;BME280;58380;48.312;9.246;2023-02-14T15:44:24;94894.66;;;9.75;56.71
71057;BME280;58380;48.312;9.246;2023-02-14T15:46:55;94886.47;;;9.65;57.32
71057;BME280;58380;48.312;9.246;2023-02-14T15:49:29;94862.75;;;9.28;58.58
71057;BME280;58380;48.312;9.246;2023-02-14T15:51:59;94877.94;;;9.26;59.51
71057;BME280;58380;48.312;9.246;2023-02-14T15:54:35;94889.16;;;9.21;60.71
71057;BME280;58380;48.312;9.246;2023-02-14T15:57:03;94889.06;;;9.10;61.75
71057;BME280;58380;48.312;9.246;2023-02-14T15:59:33;94888.53;;;9.01;62.39
71057;BME280;58380;48.312;9.246;2023-02-14T16:04:44;94868.84;;;8.60;64.65
71057;BME280;58380;48.312;9.246;2023-02-14T16:07:24;94878.06;;;8.44;65.43
71057;BME280;58380;48.312;9.246;2023-02-14T16:10:32;94899.97;;;8.31;66.48
71057;BME280;58380;48.312;9.246;2023-02-14T16:13:06;94894.84;;;8.11;67.94
71057;BME280;58380;48.312;9.246;2023-02-14T16:15:59;94896.28;;;8.07;68.56
71057;BME280;58380;48.312;9.246;2023-02-14T16:18:47;94890.47;;;7.92;69.01
71057;BME280;58380;48.312;9.246;2023-02-14T16:21:26;94889.31;;;7.81;69.60
71057;BME280;58380;48.312;9.246;2023-02-14T16:26:29;94897.13;;;7.43;70.17
71057;BME280;58380;48.312;9.246;2023-02-14T16:28:56;94894.75;;;7.34;71.52
71057;BME280;58380;48.312;9.246;2023-02-14T16:31:21;94859.28;;;6.92;72.44
71057;BME280;58380;48.312;9.246;2023-02-14T16:33:46;94906.31;;;6.94;73.45
71057;BME280;58380;48.312;9.246;2023-02-14T16:36:31;94904.72;;;6.79;74.07
71057;BME280;58380;48.312;9.246;2023-02-14T16:39:01;94885.94;;;6.49;75.26
71057;BME280;58380;48.312;9.246;2023-02-14T16:41:29;94911.56;;;6.47;76.38
71057;BME280;58380;48.312;9.246;2023-02-14T16:43:56;94924.66;;;6.27;76.55
71057;BME280;58380;48.312;9.246;2023-02-14T16:46:30;94890.69;;;5.99;77.11
71057;BME280;58380;48.312;9.246;2023-02-14T16:48:59;94890.38;;;5.74;77.61
71057;BME280;58380;48.312;9.246;2023-02-14T16:51:27;94924.06;;;5.77;78.50
71057;BME280;58380;48.312;9.246;2023-02-14T16:53:57;94917.94;;;5.63;79.54
71057;BME280;58380;48.312;9.246;2023-02-14T16:56:28;94882.47;;;5.19;80.43
71057;BME280;58380;48.312;9.246;2023-02-14T16:58:56;94926.97;;;5.19;80.91
71057;BME280;58380;48.312;9.246;2023-02-14T17:01:22;94911.31;;;4.91;82.11
71057;BME280;58380;48.312;9.246;2023-02-14T17:03:48;94895.66;;;4.69;82.39
71057;BME280;58380;48.312;9.246;2023-02-14T17:06:16;94924.06;;;4.72;82.79
71057;BME280;58380;48.312;9.246;2023-02-14T17:08:45;94895.00;;;4.39;84.12
71057;BME280;58380;48.312;9.246;2023-02-14T17:11:12;94873.16;;;4.04;84.17
71057;BME280;58380;48.312;9.246;2023-02-14T17:13:40;94889.97;;;3.95;84.78
71057;BME280;58380;48.312;9.246;2023-02-14T17:16:09;94935.94;;;4.10;85.84
71057;BME280;58380;48.312;9.246;2023-02-14T17:18:37;94893.19;;;3.75;86.32
71057;BME280;58380;48.312;9.246;2023-02-14T17:21:06;94925.03;;;3.85;86.45
71057;BME280;58380;48.312;9.246;2023-02-14T17:23:31;94927.50;;;3.72;87.04
71057;BME280;58380;48.312;9.246;2023-02-14T17:25:57;94928.31;;;3.58;87.14
71057;BME280;58380;48.312;9.246;2023-02-14T17:28:22;94929.03;;;3.52;87.20
71057;BME280;58380;48.312;9.246;2023-02-14T17:30:50;94943.91;;;3.51;87.72
71057;BME280;58380;48.312;9.246;2023-02-14T17:33:17;94954.44;;;3.43;88.01
71057;BME280;58380;48.312;9.246;2023-02-14T17:35:44;94957.75;;;3.37;88.37
71057;BME280;58380;48.312;9.246;2023-02-14T17:38:10;94940.38;;;3.14;88.63
71057;BME280;58380;48.312;9.246;2023-02-14T17:40:37;94956.22;;;2.98;89.58
71057;BME280;58380;48.312;9.246;2023-02-14T17:43:02;94942.69;;;2.79;89.58
71057;BME280;58380;48.312;9.246;2023-02-14T17:45:28;94917.38;;;2.50;90.17
71057;BME280;58380;48.312;9.246;2023-02-14T17:47:53;94959.41;;;2.70;90.41
71057;BME280;58380;48.312;9.246;2023-02-14T17:50:19;94947.94;;;2.56;90.90
71057;BME280;58380;48.312;9.246;2023-02-14T17:52:44;94949.75;;;2.56;91.78
71057;BME280;58380;48.312;9.246;2023-02-14T17:55:10;94945.19;;;2.35;92.00
71057;BME280;58380;48.312;9.246;2023-02-14T17:57:36;94958.66;;;2.38;91.92
71057;BME280;58380;48.312;9.246;2023-02-14T18:00:05;94953.03;;;2.27;91.55
71057;BME280;58380;48.312;9.246;2023-02-14T18:02:32;94943.03;;;2.15;91.59
71057;BME280;58380;48.312;9.246;2023-02-14T18:04:57;94953.84;;;2.04;92.32
71057;BME280;58380;48.312;9.246;2023-02-14T18:07:23;94964.97;;;1.98;92.42
71057;BME280;58380;48.312;9.246;2023-02-14T18:09:49;94948.75;;;1.88;92.53
71057;BME280;58380;48.312;9.246;2023-02-14T18:12:15;94878.38;;;1.42;92.66
71057;BME280;58380;48.312;9.246;2023-02-14T18:14:41;94943.09;;;1.76;93.35
71057;BME280;58380;48.312;9.246;2023-02-14T18:17:07;94944.75;;;1.69;93.56
71057;BME280;58380;48.312;9.246;2023-02-14T18:19:32;94951.06;;;1.75;93.59
71057;BME280;58380;48.312;9.246;2023-02-14T18:21:58;94925.19;;;1.42;94.42
71057;BME280;58380;48.312;9.246;2023-02-14T18:24:24;94935.50;;;1.35;94.66
71057;BME280;58380;48.312;9.246;2023-02-14T18:26:49;94949.66;;;1.33;95.09
71057;BME280;58380;48.312;9.246;2023-02-14T18:29:15;94959.72;;;1.36;95.08
71057;BME280;58380;48.312;9.246;2023-02-14T18:31:42;94952.25;;;1.33;94.87
71057;BME280;58380;48.312;9.246;2023-02-14T18:34:09;94960.56;;;1.28;94.79
71057;BME280;58380;48.312;9.246;2023-02-14T18:36:37;94951.63;;;1.22;95.03
71057;BME280;58380;48.312;9.246;2023-02-14T18:39:03;94948.53;;;1.19;95.34
71057;BME280;58380;48.312;9.246;2023-02-14T18:41:29;94949.72;;;1.00;95.34
71057;BME280;58380;48.312;9.246;2023-02-14T18:43:55;94950.88;;;0.89;95.78
71057;BME280;58380;48.312;9.246;2023-02-14T18:46:25;94953.47;;;0.89;95.77
71057;BME280;58380;48.312;9.246;2023-02-14T18:48:54;94953.16;;;0.84;95.99
71057;BME280;58380;48.312;9.246;2023-02-14T18:51:23;94950.56;;;0.84;96.07
71057;BME280;58380;48.312;9.246;2023-02-14T18:53:51;94928.97;;;0.67;96.28
71057;BME280;58380;48.312;9.246;2023-02-14T18:56:21;94940.03;;;0.61;96.31
71057;BME280;58380;48.312;9.246;2023-02-14T18:58:58;94928.84;;;0.52;96.29
71057;BME280;58380;48.312;9.246;2023-02-14T19:01:30;94934.72;;;0.38;96.15
71057;BME280;58380;48.312;9.246;2023-02-14T19:03:59;94937.94;;;0.32;96.14
71057;BME280;58380;48.312;9.246;2023-02-14T19:06:26;94931.13;;;0.31;96.39
71057;BME280;58380;48.312;9.246;2023-02-14T19:08:54;94924.97;;;0.24;96.58
71057;BME280;58380;48.312;9.246;2023-02-14T19:11:23;94922.38;;;0.24;96.94
71057;BME280;58380;48.312;9.246;2023-02-14T19:13:54;94918.31;;;0.13;96.80
71057;BME280;58380;48.312;9.246;2023-02-14T19:16:28;94913.09;;;0.05;96.91
71057;BME280;58380;48.312;9.246;2023-02-14T19:18:55;94923.97;;;0.08;97.15
71057;BME280;58380;48.312;9.246;2023-02-14T19:21:24;94925.44;;;0.03;97.12
71057;BME280;58380;48.312;9.246;2023-02-14T19:23:53;94930.94;;;-0.01;97.25
71057;BME280;58380;48.312;9.246;2023-02-14T19:26:30;94921.03;;;-0.05;97.57
71057;BME280;58380;48.312;9.246;2023-02-14T19:29:01;94903.81;;;-0.31;98.00
71057;BME280;58380;48.312;9.246;2023-02-14T19:31:34;94924.75;;;-0.24;98.17
71057;BME280;58380;48.312;9.246;2023-02-14T19:34:02;94927.16;;;-0.31;98.40
71057;BME280;58380;48.312;9.246;2023-02-14T19:36:29;94910.78;;;-0.39;98.37
71057;BME280;58380;48.312;9.246;2023-02-14T19:38:55;94909.13;;;-0.40;98.32
71057;BME280;58380;48.312;9.246;2023-02-14T19:41:26;94918.72;;;-0.33;98.27
71057;BME280;58380;48.312;9.246;2023-02-14T19:43:57;94909.78;;;-0.47;98.29
71057;BME280;58380;48.312;9.246;2023-02-14T19:46:25;94910.06;;;-0.58;98.69
71057;BME280;58380;48.312;9.246;2023-02-14T19:48:52;94913.41;;;-0.74;98.91
71057;BME280;58380;48.312;9.246;2023-02-14T19:53:52;94909.78;;;-0.89;99.02
71057;BME280;58380;48.312;9.246;2023-02-14T19:56:19;94921.44;;;-0.85;99.72
71057;BME280;58380;48.312;9.246;2023-02-14T19:58:47;94907.03;;;-0.88;99.75
71057;BME280;58380;48.312;9.246;2023-02-14T20:01:22;94898.06;;;-1.01;99.77
71057;BME280;58380;48.312;9.246;2023-02-14T20:03:50;94907.66;;;-0.94;99.78
71057;BME280;58380;48.312;9.246;2023-02-14T20:06:17;94879.66;;;-1.24;99.92
71057;BME280;58380;48.312;9.246;2023-02-14T20:08:43;94883.88;;;-1.23;99.62
71057;BME280;58380;48.312;9.246;2023-02-14T20:11:30;94911.78;;;-1.17;99.29
71057;BME280;58380;48.312;9.246;2023-02-14T20:13:57;94894.91;;;-1.47;99.24
71057;BME280;58380;48.312;9.246;2023-02-14T20:16:26;94923.25;;;-1.46;100.00
71057;BME280;58380;48.312;9.246;2023-02-14T20:18:53;94898.72;;;-1.60;100.00
71057;BME280;58380;48.312;9.246;2023-02-14T20:21:21;94872.25;;;-1.71;100.00
71057;BME280;58380;48.312;9.246;2023-02-14T20:23:50;94922.34;;;-1.37;100.00
71057;BME280;58380;48.312;9.246;2023-02-14T20:26:16;94919.56;;;-1.35;100.00
71057;BME280;58380;48.312;9.246;2023-02-14T20:28:43;94883.38;;;-1.53;99.87
71057;BME280;58380;48.312;9.246;2023-02-14T20:31:10;94915.06;;;-1.33;99.98
71057;BME280;58380;48.312;9.246;2023-02-14T20:33:38;94916.94;;;-1.43;99.71
71057;BME280;58380;48.312;9.246;2023-02-14T20:36:04;94907.13;;;-1.58;99.72
71057;BME280;58380;48.312;9.246;2023-02-14T20:38:31;94901.16;;;-1.58;99.88
71057;BME280;58380;48.312;9.246;2023-02-14T20:41:01;94910.84;;;-1.60;100.00
71057;BME280;58380;48.312;9.246;2023-02-14T20:43:34;94887.84;;;-1.63;100.00
71057;BME280;58380;48.312;9.246;2023-02-14T20:46:01;94841.88;;;-1.87;100.00
71057;BME280;58380;48.312;9.246;2023-02-14T20:48:29;94894.41;;;-1.51;100.00
71057;BME280;58380;48.312;9.246;2023-02-14T20:50:55;94888.72;;;-1.55;100.00
71057;BME280;58380;48.312;9.246;2023-02-14T20:53:21;94864.03;;;-1.67;100.00
71057;BME280;58380;48.312;9.246;2023-02-14T20:55:50;94887.69;;;-1.62;100.00
71057;BME280;58380;48.312;9.246;2023-02-14T20:58:17;94882.66;;;-1.63;100.00
71057;BME280;58380;48.312;9.246;2023-02-14T21:00:45;94874.63;;;-1.78;100.00
71057;BME280;58380;48.312;9.246;2023-02-14T21:03:12;94853.22;;;-1.88;100.00
71057;BME280;58380;48.312;9.246;2023-02-14T21:05:38;94876.09;;;-1.76;100.00
71057;BME280;58380;48.312;9.246;2023-02-14T21:08:04;94862.66;;;-1.79;100.00
71057;BME280;58380;48.312;9.246;2023-02-14T21:10:29;94877.63;;;-1.65;100.00
71057;BME280;58380;48.312;9.246;2023-02-14T21:12:55;94823.59;;;-1.94;100.00
71057;BME280;58380;48.312;9.246;2023-02-14T21:15:20;94821.91;;;-2.03;100.00
71057;BME280;58380;48.312;9.246;2023-02-14T21:17:46;94849.06;;;-1.81;100.00
71057;BME280;58380;48.312;9.246;2023-02-14T21:20:12;94863.38;;;-1.69;100.00
71057;BME280;58380;48.312;9.246;2023-02-14T21:22:39;94842.72;;;-1.87;100.00
71057;BME280;58380;48.312;9.246;2023-02-14T21:25:05;94863.03;;;-1.74;100.00
71057;BME280;58380;48.312;9.246;2023-02-14T21:27:31;94860.00;;;-1.87;100.00
71057;BME280;58380;48.312;9.246;2023-02-14T21:29:57;94860.84;;;-1.87;100.00
71057;BME280;58380;48.312;9.246;2023-02-14T21:32:22;94840.00;;;-2.03;100.00
71057;BME280;58380;48.312;9.246;2023-02-14T21:34:48;94849.59;;;-1.96;100.00
71057;BME280;58380;48.312;9.246;2023-02-14T21:37:13;94860.00;;;-1.87;100.00
71057;BME280;58380;48.312;9.246;2023-02-14T21:39:39;94863.22;;;-1.93;100.00
71057;BME280;58380;48.312;9.246;2023-02-14T21:42:05;94797.94;;;-2.31;100.00
71057;BME280;58380;48.312;9.246;2023-02-14T21:44:32;94795.03;;;-2.28;100.00
71057;BME280;58380;48.312;9.246;2023-02-14T21:47:17;94829.59;;;-2.11;100.00
71057;BME280;58380;48.312;9.246;2023-02-14T21:49:43;94846.66;;;-2.01;100.00
71057;BME280;58380;48.312;9.246;2023-02-14T21:52:27;94825.19;;;-2.19;100.00
71057;BME280;58380;48.312;9.246;2023-02-14T21:54:55;94847.19;;;-2.15;100.00
71057;BME280;58380;48.312;9.246;2023-02-14T21:57:20;94810.63;;;-2.38;99.63
71057;BME280;58380;48.312;9.246;2023-02-14T21:59:46;94806.44;;;-2.57;99.77
71057;BME280;58380;48.312;9.246;2023-02-14T22:02:11;94785.47;;;-2.72;99.89
71057;BME280;58380;48.312;9.246;2023-02-14T22:04:37;94820.56;;;-2.51;100.00
71057;BME280;58380;48.312;9.246;2023-02-14T22:07:02;94808.00;;;-2.64;100.00
71057;BME280;58380;48.312;9.246;2023-02-14T22:09:28;94829.19;;;-2.43;100.00
71057;BME280;58380;48.312;9.246;2023-02-14T22:11:54;94795.28;;;-2.57;100.00
71057;BME280;58380;48.312;9.246;2023-02-14T22:14:19;94819.06;;;-2.54;100.00
71057;BME280;58380;48.312;9.246;2023-02-14T22:16:45;94792.69;;;-2.75;100.00
71057;BME280;58380;48.312;9.246;2023-02-14T22:19:13;94817.38;;;-2.63;100.00
71057;BME280;58380;48.312;9.246;2023-02-14T22:21:42;94833.00;;;-2.65;99.03
71057;BME280;58380;48.312;9.246;2023-02-14T22:24:08;94803.91;;;-2.85;99.33